Time;durP1;ratioP1;P1;durP2;ratioP2;P2;SDS_P1;SDS_P2;PMS_P1;PMS_P2;Temp;Humidity;BMP_temperature;BMP_pressure;BME280_temperature;BME280_humidity;BME280_pressure;Samples;Min_cycle;Max_cycle;Signal;HPM_P1;HPM_P2
2022/04/22 00:00:07;;;;;;;79.00;70.50;;;;;;;10.72;72.84;100063.19;110229;1254;21954;-77
2022/04/22 00:02:56;;;;;;;74.00;66.20;;;;;;;10.71;72.87;100056.56;110546;1254;23687;-78
2022/04/22 00:05:26;;;;;;;68.60;61.70;;;;;;;10.73;73.08;100053.38;109995;1260;23713;-76
2022/04/22 00:07:59;;;;;;;70.80;63.40;;;;;;;10.74;72.99;100048.80;109992;1260;23059;-76
2022/04/22 00:10:29;;;;;;;74.00;66.30;;;;;;;10.75;72.96;100041.10;110123;1260;21973;-77
2022/04/22 00:13:01;;;;;;;70.50;63.10;;;;;;;10.76;72.97;100037.84;109982;1260;22912;-76
2022/04/22 00:15:31;;;;;;;70.40;63.40;;;;;;;10.76;72.86;100035.27;109949;1254;23661;-77
2022/04/22 00:18:02;;;;;;;71.10;63.70;;;;;;;10.76;73.00;100029.90;110524;1254;23698;-76
2022/04/22 00:20:41;;;;;;;77.30;69.30;;;;;;;10.76;72.97;100031.19;110551;1254;21952;-77
2022/04/22 00:23:45;;;;;;;69.00;61.90;;;;;;;10.72;72.96;100030.15;110048;1254;23667;-76
2022/04/22 00:26:25;;;;;;;70.60;63.50;;;;;;;10.72;72.99;100025.99;110523;1254;21962;-77
2022/04/22 00:28:54;;;;;;;70.20;63.40;;;;;;;10.72;72.96;100026.00;110163;1254;21972;-77
2022/04/22 00:31:24;;;;;;;70.20;63.10;;;;;;;10.71;72.93;100024.56;109986;1260;22798;-77
2022/04/22 00:33:55;;;;;;;71.20;64.10;;;;;;;10.70;73.01;100023.37;109927;1260;23056;-77
2022/04/22 00:36:25;;;;;;;67.50;60.60;;;;;;;10.69;72.99;100020.14;109942;1259;21966;-77
2022/04/22 00:38:55;;;;;;;68.80;61.70;;;;;;;10.69;73.00;100019.33;109780;1263;22747;-76
2022/04/22 00:41:26;;;;;;;72.10;64.70;;;;;;;10.68;73.08;100015.33;109670;1260;21968;-78
2022/04/22 00:43:59;;;;;;;73.10;65.50;;;;;;;10.68;73.14;100012.52;108954;1267;23624;-76
2022/04/22 00:46:28;;;;;;;72.10;64.50;;;;;;;10.67;73.02;100009.13;109269;1267;21976;-76
2022/04/22 00:49:01;;;;;;;75.20;67.40;;;;;;;10.65;72.98;100001.82;109343;1262;22909;-77
2022/04/22 00:51:31;;;;;;;82.10;73.10;;;;;;;10.65;73.21;99996.73;109972;1260;21970;-75
2022/04/22 00:54:03;;;;;;;77.60;69.40;;;;;;;10.66;73.33;99996.06;109986;1254;23035;-76
2022/04/22 00:56:35;;;;;;;77.80;69.50;;;;;;;10.66;73.26;99991.79;110570;1256;22072;-76
2022/04/22 00:59:05;;;;;;;77.40;69.30;;;;;;;10.67;73.26;99988.73;109969;1261;23054;-76
2022/04/22 01:01:35;;;;;;;80.60;72.20;;;;;;;10.66;73.25;99989.04;110066;1254;23088;-78
2022/04/22 01:09:47;;;;;;;77.20;69.30;;;;;;;10.60;73.21;99984.09;110502;1254;22739;-78
2022/04/22 01:12:17;;;;;;;80.60;72.30;;;;;;;10.58;73.36;99985.73;110521;1254;23614;-77
2022/04/22 01:14:49;;;;;;;78.30;69.90;;;;;;;10.58;73.46;99984.27;110236;1255;23758;-78
2022/04/22 01:17:19;;;;;;;78.70;70.60;;;;;;;10.59;73.60;99984.61;110675;1251;22024;-78
2022/04/22 01:19:48;;;;;;;76.50;68.40;;;;;;;10.61;73.64;99987.81;110864;1248;23086;-78
2022/04/22 01:22:20;;;;;;;78.00;69.70;;;;;;;10.62;73.55;99986.52;110829;1250;21918;-77
2022/04/22 01:24:53;;;;;;;79.10;70.80;;;;;;;10.61;73.51;99986.92;110760;1251;21972;-77
2022/04/22 01:27:24;;;;;;;77.70;69.60;;;;;;;10.62;73.67;99983.32;110877;1251;21960;-77
2022/04/22 01:29:54;;;;;;;76.30;68.00;;;;;;;10.64;73.79;99983.43;110340;1257;22773;-77
2022/04/22 01:32:26;;;;;;;75.30;67.40;;;;;;;10.66;73.83;99982.52;110210;1257;22038;-78
2022/04/22 01:34:55;;;;;;;;;;;;;;;10.66;73.65;99979.85;110473;1257;21967;-78
2022/04/22 01:37:26;;;;;;;75.00;66.80;;;;;;;10.57;73.68;99979.25;110315;1257;23807;-77
2022/04/22 01:39:55;;;;;;;75.70;67.70;;;;;;;10.55;73.84;99976.03;110523;1256;21971;-77
2022/04/22 01:42:26;;;;;;;76.10;68.40;;;;;;;10.56;73.82;99975.05;110444;1256;23123;-77
2022/04/22 01:44:57;;;;;;;76.00;68.10;;;;;;;10.56;73.85;99974.84;110358;1257;22028;-77
2022/04/22 01:47:30;;;;;;;74.90;67.30;;;;;;;10.54;73.58;99978.35;110438;1251;22009;-77
2022/04/22 01:49:59;;;;;;;75.30;67.80;;;;;;;10.46;73.25;99975.61;110753;1247;23763;-77
2022/04/22 01:52:29;;;;;;;76.00;68.60;;;;;;;10.37;73.39;99973.05;110854;1251;21961;-77
2022/04/22 01:55:03;;;;;;;76.50;68.60;;;;;;;10.31;73.67;99973.67;110651;1251;21996;-77
2022/04/22 01:57:32;;;;;;;90.30;80.70;;;;;;;10.29;73.91;99975.30;110956;1250;21952;-77
2022/04/22 02:00:04;;;;;;;82.20;73.70;;;;;;;10.27;73.99;99976.27;111140;1248;22076;-79
2022/04/22 02:02:34;;;;;;;;;;;;;;;10.23;74.00;99973.98;110662;1251;22862;-77
2022/04/22 02:05:05;;;;;;;78.70;70.10;;;;;;;10.12;74.18;99972.07;110969;1248;21935;-79
2022/04/22 02:07:34;;;;;;;72.60;65.00;;;;;;;10.07;74.37;99972.45;110510;1254;23047;-78
2022/04/22 02:10:04;;;;;;;76.30;68.30;;;;;;;10.03;74.37;99973.44;109975;1259;21966;-78
2022/04/22 02:12:33;;;;;;;108.70;96.10;;;;;;;9.99;74.39;99969.66;110274;1259;21971;-78
2022/04/22 02:15:03;;;;;;;185.40;145.30;;;;;;;9.97;74.73;99969.71;110307;1257;23620;-77
2022/04/22 02:17:32;;;;;;;241.70;173.30;;;;;;;9.98;74.95;99965.66;110216;1257;22046;-78
2022/04/22 02:20:04;;;;;;;318.80;249.50;;;;;;;9.98;75.12;99961.16;110165;1259;22393;-78
2022/04/22 02:22:34;;;;;;;173.00;153.90;;;;;;;9.97;75.12;99963.41;110360;1257;23689;-77
2022/04/22 02:25:04;;;;;;;169.10;151.30;;;;;;;9.97;75.26;99965.55;110210;1254;22026;-77
2022/04/22 02:30:21;;;;;;;63.10;56.70;;;;;;;10.00;75.50;99972.07;111007;1248;22751;-77
2022/04/22 02:32:53;;;;;;;52.10;46.30;;;;;;;9.99;75.50;99971.28;110649;1251;22032;-78
2022/04/22 02:35:22;;;;;;;59.10;53.10;;;;;;;9.98;75.50;99963.17;110591;1254;22306;-76
2022/04/22 02:37:52;;;;;;;44.50;40.10;;;;;;;9.98;75.45;99962.09;110337;1257;21972;-77
2022/04/22 02:45:57;;;;;;;33.40;30.10;;;;;;;10.09;75.07;99956.94;110601;1254;22261;-77
2022/04/22 02:48:26;;;;;;;35.10;31.60;;;;;;;10.12;74.84;99960.81;110482;1254;23591;-77
2022/04/22 02:50:55;;;;;;;36.00;32.50;;;;;;;10.16;74.60;99961.21;110455;1254;23047;-77
2022/04/22 02:53:24;;;;;;;44.40;40.10;;;;;;;10.20;74.39;99962.95;110458;1247;22861;-77
2022/04/22 02:55:54;;;;;;;47.10;42.30;;;;;;;10.23;74.14;99962.39;110125;1254;22152;-77
2022/04/22 02:58:24;;;;;;;60.30;53.90;;;;;;;10.25;73.90;99968.17;110559;1253;21991;-77
2022/04/22 03:00:54;;;;;;;106.20;94.30;;;;;;;10.25;73.66;99970.32;110425;1254;21980;-77
2022/04/22 03:03:23;;;;;;;120.80;107.90;;;;;;;10.23;73.60;99966.43;110465;1254;22041;-77
2022/04/22 03:05:52;;;;;;;69.60;62.60;;;;;;;10.23;73.41;99967.85;110471;1254;21960;-76
2022/04/22 03:08:21;;;;;;;70.70;63.60;;;;;;;10.24;73.42;99966.36;110635;1254;24400;-77
2022/04/22 03:10:52;;;;;;;72.40;64.70;;;;;;;10.24;73.39;99966.29;110019;1260;24343;-76
2022/04/22 03:13:21;;;;;;;62.70;56.30;;;;;;;10.24;73.33;99967.41;110154;1260;21978;-76
2022/04/22 03:15:53;;;;;;;66.50;59.50;;;;;;;10.23;73.24;99967.11;110125;1260;21978;-78
2022/04/22 03:18:25;;;;;;;78.00;61.80;;;;;;;10.22;73.19;99966.56;110156;1259;23046;-78
2022/04/22 03:21:00;;;;;;;63.20;56.70;;;;;;;10.19;73.14;99973.21;109949;1254;22023;-77
2022/04/22 03:23:37;;;;;;;59.20;53.30;;;;;;;10.17;73.15;99965.89;110336;1253;22035;-79
2022/04/22 03:26:10;;;;;;;57.50;50.60;;;;;;;10.17;73.19;99963.59;110480;1254;21987;-77
2022/04/22 03:28:39;;;;;;;55.70;50.40;;;;;;;10.17;73.07;99959.43;110449;1247;21957;-77
2022/04/22 03:31:10;;;;;;;54.50;49.30;;;;;;;10.16;73.18;99956.46;110912;1248;21962;-77
2022/04/22 03:33:39;;;;;;;57.30;51.30;;;;;;;10.18;73.08;99957.55;110760;1247;21962;-77
2022/04/22 03:36:12;;;;;;;56.90;51.40;;;;;;;10.17;73.15;99957.09;110528;1254;22081;-78
2022/04/22 03:38:43;;;;;;;55.30;49.80;;;;;;;10.15;73.24;99960.70;110600;1254;21990;-77
2022/04/22 03:41:12;;;;;;;57.90;52.40;;;;;;;10.11;73.17;99962.22;110454;1253;22919;-77
2022/04/22 03:43:41;;;;;;;58.80;53.30;;;;;;;10.07;73.07;99969.79;110497;1255;22012;-77
2022/04/22 03:46:13;;;;;;;58.50;53.00;;;;;;;10.04;73.15;99973.73;110473;1255;22020;-77
2022/04/22 03:48:43;;;;;;;57.60;52.20;;;;;;;10.02;73.37;99978.36;110400;1256;23567;-78
2022/04/22 03:51:13;;;;;;;56.40;51.10;;;;;;;9.99;73.46;99982.20;110473;1253;22279;-77
2022/04/22 03:53:43;;;;;;;60.60;54.70;;;;;;;9.95;73.56;99984.63;110270;1253;21987;-77
2022/04/22 03:59:02;;;;;;;53.30;48.20;;;;;;;9.94;73.62;99981.20;110546;1253;21977;-77
2022/04/22 04:01:31;;;;;;;50.20;45.40;;;;;;;9.89;73.65;99986.07;110533;1253;21958;-77
2022/04/22 04:04:01;;;;;;;48.60;43.70;;;;;;;9.85;73.77;99985.89;110536;1253;23580;-78
2022/04/22 04:06:30;;;;;;;44.10;40.20;;;;;;;9.82;73.71;99988.47;110823;1252;21956;-78
2022/04/22 04:17:22;;;;;;;45.30;40.80;;;;;;;9.77;74.40;99987.70;109697;1264;21972;-77
2022/04/22 04:25:32;;;;;;;49.80;44.90;;;;;;;9.68;74.31;99980.73;109687;1262;23395;-77
2022/04/22 04:28:02;;;;;;;48.60;43.80;;;;;;;9.68;74.44;99980.16;109288;1264;22027;-77
2022/04/22 04:30:32;;;;;;;47.70;42.80;;;;;;;9.70;74.60;99981.94;109649;1258;22425;-78
2022/04/22 04:33:06;;;;;;;43.60;39.10;;;;;;;9.70;74.61;99985.30;109609;1257;21971;-78
2022/04/22 04:35:46;;;;;;;45.80;41.40;;;;;;;9.68;74.41;99987.91;110239;1257;23053;-78
2022/04/22 04:38:17;;;;;;;43.10;38.90;;;;;;;9.71;74.67;99990.47;109679;1259;22294;-78
2022/04/22 04:40:48;;;;;;;40.50;36.70;;;;;;;9.72;74.64;99987.38;109775;1259;22011;-78
2022/04/22 04:43:19;;;;;;;40.80;36.80;;;;;;;9.70;74.60;99986.55;110166;1259;21984;-77
2022/04/22 04:45:51;;;;;;;41.50;37.40;;;;;;;9.71;74.78;99984.14;110066;1256;21966;-77
2022/04/22 04:48:21;;;;;;;39.80;35.90;;;;;;;9.73;74.76;99988.09;110201;1256;21994;-77
2022/04/22 04:50:51;;;;;;;38.70;35.00;;;;;;;9.74;74.60;99990.42;110250;1250;21975;-77
2022/04/22 04:53:23;;;;;;;39.60;35.70;;;;;;;9.75;74.73;99991.25;110660;1251;21971;-77
2022/04/22 04:55:53;;;;;;;38.50;35.00;;;;;;;9.77;74.76;99992.02;110525;1253;22989;-78
2022/04/22 04:58:22;;;;;;;35.10;31.90;;;;;;;9.78;74.69;99990.11;110511;1255;23213;-77
2022/04/22 05:00:52;;;;;;;34.30;30.60;;;;;;;9.80;74.46;99986.47;110459;1255;22154;-78
2022/04/22 05:03:21;;;;;;;32.30;29.30;;;;;;;9.81;74.53;99984.52;110459;1256;23892;-78
2022/04/22 05:05:52;;;;;;;33.20;29.60;;;;;;;9.80;74.37;99978.34;109944;1258;23097;-78
2022/04/22 05:08:21;;;;;;;34.20;30.80;;;;;;;9.80;74.45;99983.04;109940;1259;23145;-78
2022/04/22 05:10:53;;;;;;;34.90;31.30;;;;;;;9.82;74.49;99981.95;110177;1258;23721;-78
2022/04/22 05:13:25;;;;;;;31.70;28.70;;;;;;;9.84;74.39;99983.63;110052;1255;23049;-78
2022/04/22 05:15:56;;;;;;;33.50;30.10;;;;;;;9.84;74.14;99981.19;110266;1254;23023;-78
2022/04/22 05:18:29;;;;;;;29.60;26.60;;;;;;;9.85;74.13;99980.98;109945;1259;21974;-77
2022/04/22 05:20:59;;;;;;;30.00;27.10;;;;;;;9.88;74.09;99977.99;109646;1261;22178;-78
2022/04/22 05:23:28;;;;;;;28.90;26.00;;;;;;;9.90;73.98;99982.55;109933;1257;22865;-78
2022/04/22 05:25:57;;;;;;;26.80;24.00;;;;;;;9.92;74.04;99981.77;110161;1256;23685;-77
2022/04/22 05:28:29;;;;;;;28.30;25.50;;;;;;;9.95;73.82;99980.52;110273;1254;21962;-77
2022/04/22 05:33:46;;;;;;;24.10;21.60;;;;;;;9.92;73.56;99974.31;110349;1256;21980;-77
2022/04/22 05:36:19;;;;;;;25.80;23.10;;;;;;;9.91;73.41;99973.23;110119;1254;23597;-80
2022/04/22 05:38:49;;;;;;;25.10;22.60;;;;;;;9.94;73.45;99972.95;110337;1254;22107;-78
2022/04/22 05:41:19;;;;;;;26.50;23.60;;;;;;;9.98;73.34;99973.04;110458;1257;24285;-77
2022/04/22 05:43:48;;;;;;;26.00;23.20;;;;;;;10.03;73.33;99969.94;110573;1254;21978;-78
2022/04/22 05:46:20;;;;;;;23.00;20.70;;;;;;;10.07;72.92;99968.64;110441;1254;23013;-77
2022/04/22 05:48:50;;;;;;;24.60;18.80;;;;;;;10.12;73.08;99970.81;110447;1254;23032;-77
2022/04/22 05:51:19;;;;;;;20.00;18.00;;;;;;;10.19;72.90;99976.18;110473;1256;22037;-78
2022/04/22 05:53:49;;;;;;;20.70;18.60;;;;;;;10.22;72.43;99975.58;110433;1253;22858;-76
2022/04/22 05:56:18;;;;;;;20.30;18.10;;;;;;;10.22;72.29;99980.29;110490;1253;22770;-79
2022/04/22 05:58:48;;;;;;;19.70;17.10;;;;;;;10.26;72.09;99980.59;110346;1254;23056;-76
2022/04/22 06:01:17;;;;;;;25.80;18.10;;;;;;;10.31;71.72;99984.27;110533;1250;21965;-76
2022/04/22 06:03:46;;;;;;;24.00;19.20;;;;;;;10.34;71.63;99982.48;110994;1250;22011;-75
2022/04/22 06:06:16;;;;;;;26.10;20.80;;;;;;;10.40;71.46;99987.43;110962;1247;21961;-78
2022/04/22 06:11:32;;;;;;;18.20;16.20;;;;;;;10.54;71.37;99987.80;110706;1250;23669;-78
2022/04/22 06:14:02;;;;;;;18.20;16.50;;;;;;;10.58;70.93;99990.40;110935;1250;21999;-79
2022/04/22 06:16:31;;;;;;;17.40;15.30;;;;;;;10.61;70.45;99995.70;110561;1253;22032;-80
2022/04/22 06:19:06;;;;;;;15.80;13.80;;;;;;;10.62;69.96;99999.26;110793;1254;22000;-81
2022/04/22 06:21:39;;;;;;;16.50;13.40;;;;;;;10.60;69.54;99992.48;110505;1253;21962;-81
2022/04/22 06:24:22;;;;;;;14.20;12.40;;;;;;;10.63;69.80;99991.29;110638;1255;24128;-81
2022/04/22 06:26:54;;;;;;;15.70;12.40;;;;;;;10.73;69.66;99999.35;110642;1253;24364;-81
2022/04/22 06:29:24;;;;;;;19.10;13.00;;;;;;;10.77;69.17;99998.48;110669;1253;21959;-81
2022/04/22 06:31:54;;;;;;;16.20;13.70;;;;;;;10.82;69.14;99996.30;109588;1260;22919;-80
2022/04/22 06:34:26;;;;;;;17.50;13.70;;;;;;;10.90;68.98;99999.46;109318;1263;24189;-81
2022/04/22 06:36:57;;;;;;;14.50;13.10;;;;;;;10.95;68.45;99996.91;109777;1260;22709;-80
2022/04/22 06:45:46;;;;;;;22.80;14.70;;;;;;;11.00;68.33;99992.44;109944;1260;22042;-80
2022/04/22 06:48:00;;;;;;;15.90;14.30;;;;;;;10.99;67.48;100002.06;109486;1265;23905;-80
2022/04/22 06:50:30;;;;;;;14.50;13.10;;;;;;;10.95;67.40;100002.73;109657;1259;21974;-81
2022/04/22 06:53:05;;;;;;;16.00;13.30;;;;;;;10.97;67.56;100009.42;110226;1259;23609;-81
2022/04/22 06:55:40;;;;;;;15.20;13.60;;;;;;;11.00;67.51;100017.98;110224;1259;22041;-81
2022/04/22 06:58:15;;;;;;;14.10;12.80;;;;;;;10.98;67.25;100019.85;110296;1260;21971;-81
2022/04/22 07:00:47;;;;;;;15.90;13.00;;;;;;;10.92;67.29;100022.14;110421;1256;23898;-81
2022/04/22 07:03:30;;;;;;;14.80;12.80;;;;;;;10.86;67.25;100022.96;109990;1259;21980;-84
2022/04/22 07:06:17;;;;;;;12.80;10.60;;;;;;;10.79;67.15;100032.92;110168;1257;21979;-83
2022/04/22 07:08:52;;;;;;;15.50;13.50;;;;;;;10.69;67.14;100026.73;110151;1259;21981;-83
2022/04/22 07:11:25;;;;;;;13.60;11.50;;;;;;;10.64;67.38;100028.50;110349;1257;21963;-83
2022/04/22 07:14:01;;;;;;;14.60;12.40;;;;;;;10.61;67.64;100020.20;109596;1262;22022;-82
2022/04/22 07:16:43;;;;;;;15.30;11.50;;;;;;;10.62;67.99;100008.47;109627;1262;21992;-83
2022/04/22 07:19:31;;;;;;;11.70;10.50;;;;;;;10.68;68.15;100001.70;110037;1260;21982;-83
2022/04/22 07:22:20;;;;;;;14.70;11.40;;;;;;;10.73;68.23;100005.13;110532;1253;24466;-85
2022/04/22 07:24:56;;;;;;;16.30;12.20;;;;;;;10.81;68.15;100002.95;110391;1257;21963;-83
2022/04/22 07:27:28;;;;;;;13.40;11.40;;;;;;;10.87;67.83;100001.70;110570;1257;22556;-81
2022/04/22 07:30:13;;;;;;;13.90;12.10;;;;;;;10.90;67.53;100001.95;110723;1257;22325;-83
2022/04/22 07:32:49;;;;;;;11.50;10.00;;;;;;;10.99;67.73;100002.66;110767;1253;22726;-83
2022/04/22 07:35:21;;;;;;;12.30;10.50;;;;;;;11.12;67.82;100010.43;110717;1254;23679;-84
2022/04/22 07:37:56;;;;;;;9.70;8.90;;;;;;;11.26;67.61;100019.68;110658;1254;22847;-84
2022/04/22 07:40:27;;;;;;;10.60;9.60;;;;;;;11.34;66.78;100019.48;110918;1253;22004;-84
2022/04/22 07:48:52;;;;;;;12.20;10.80;;;;;;;11.20;65.95;100036.23;110492;1257;21933;-85
2022/04/22 07:51:28;;;;;;;10.80;9.70;;;;;;;11.12;65.94;100041.06;109595;1263;22023;-85
2022/04/22 07:53:58;;;;;;;12.00;10.80;;;;;;;11.07;66.05;100038.01;109536;1265;22053;-84
2022/04/22 07:56:28;;;;;;;13.40;11.40;;;;;;;11.07;66.44;100036.36;109308;1264;22433;-83
2022/04/22 07:59:04;;;;;;;11.00;9.90;;;;;;;11.14;66.58;100034.54;109356;1263;24287;-84
2022/04/22 08:01:37;;;;;;;11.40;10.10;;;;;;;11.22;66.53;100034.66;109625;1263;22472;-83
2022/04/22 08:04:17;;;;;;;12.30;10.90;;;;;;;11.23;65.96;100038.35;109826;1260;21967;-85
2022/04/22 08:06:55;;;;;;;10.80;9.90;;;;;;;11.15;65.69;100042.31;109843;1258;22265;-83
2022/04/22 08:09:49;;;;;;;14.10;12.70;;;;;;;11.02;65.75;100038.55;110669;1253;21995;-82
2022/04/22 08:12:27;;;;;;;13.30;12.00;;;;;;;10.93;65.90;100037.63;111036;1250;24276;-82
2022/04/22 08:14:59;;;;;;;12.10;10.90;;;;;;;10.87;66.03;100039.27;111063;1250;21927;-84
2022/04/22 08:17:36;;;;;;;12.20;11.00;;;;;;;10.85;66.22;100040.33;111267;1250;22036;-83
2022/04/22 08:20:10;;;;;;;17.40;12.40;;;;;;;10.82;66.37;100046.66;110684;1257;22327;-83
2022/04/22 08:22:46;;;;;;;16.40;13.40;;;;;;;10.82;66.53;100046.83;110527;1257;21980;-84
2022/04/22 08:25:18;;;;;;;14.40;12.60;;;;;;;10.81;66.66;100044.98;110385;1257;21977;-83
2022/04/22 08:27:53;;;;;;;15.90;12.90;;;;;;;10.85;66.90;100050.90;109851;1261;22427;-82
2022/04/22 08:30:28;;;;;;;13.50;11.50;;;;;;;10.90;66.80;100048.30;110057;1262;21982;-83
2022/04/22 08:33:06;;;;;;;14.50;13.10;;;;;;;10.96;66.81;100047.44;109966;1261;23500;-82
2022/04/22 08:35:58;;;;;;;12.60;11.30;;;;;;;11.02;66.75;100048.20;109805;1262;22330;-82
2022/04/22 08:38:36;;;;;;;13.80;12.40;;;;;;;11.05;66.42;100047.41;110217;1252;22966;-83
2022/04/22 08:41:10;;;;;;;12.00;10.80;;;;;;;11.03;66.25;100053.73;110744;1253;21960;-82
2022/04/22 08:43:45;;;;;;;14.20;12.80;;;;;;;11.03;66.24;100054.63;110030;1260;21987;-83
2022/04/22 08:52:00;;;;;;;15.00;13.60;;;;;;;11.43;66.89;100047.55;110109;1260;24432;-83
2022/04/22 08:54:35;;;;;;;15.80;14.00;;;;;;;11.59;66.63;100044.22;110060;1260;22031;-81
2022/04/22 08:57:11;;;;;;;13.10;11.80;;;;;;;11.77;66.20;100046.70;110246;1260;22414;-81
2022/04/22 08:59:46;;;;;;;12.50;11.10;;;;;;;12.04;66.50;100044.71;109431;1267;21985;-83
2022/04/22 09:02:19;;;;;;;12.20;10.80;;;;;;;12.40;66.12;100041.36;109299;1264;22020;-82
2022/04/22 09:04:51;;;;;;;10.60;9.50;;;;;;;12.65;64.45;100043.75;109377;1265;23727;-83
2022/04/22 09:07:32;;;;;;;10.40;8.70;;;;;;;12.77;62.62;100051.48;109187;1268;23594;-82
2022/04/22 09:10:15;;;;;;;9.40;8.40;;;;;;;12.64;61.04;100050.21;109141;1267;21978;-84
2022/04/22 09:12:56;;;;;;;9.90;8.90;;;;;;;12.56;61.30;100045.77;109566;1263;22034;-83
2022/04/22 09:15:34;;;;;;;11.50;8.30;;;;;;;12.67;62.06;100046.01;109479;1264;23122;-83
2022/04/22 09:18:29;;;;;;;9.70;6.90;;;;;;;12.75;61.22;100049.14;109898;1260;21979;-84
2022/04/22 09:21:06;;;;;;;7.00;6.30;;;;;;;12.80;61.34;100044.33;110281;1257;21971;-83
2022/04/22 09:23:40;;;;;;;6.60;5.90;;;;;;;12.96;61.07;100045.83;110205;1257;22008;-82
2022/04/22 09:26:30;;;;;;;7.40;6.60;;;;;;;13.02;60.41;100040.48;110924;1249;23321;-83
2022/04/22 09:29:06;;;;;;;10.10;7.30;;;;;;;13.02;59.61;100031.51;110857;1249;21960;-82
2022/04/22 09:31:48;;;;;;;8.40;7.20;;;;;;;12.96;59.30;100034.89;110890;1249;22745;-82
2022/04/22 09:34:37;;;;;;;6.60;6.00;;;;;;;12.83;58.88;100033.64;110995;1249;21984;-83
2022/04/22 09:43:02;;;;;;;7.00;6.40;;;;;;;12.40;60.65;100031.25;110226;1256;23033;-84
2022/04/22 09:45:52;;;;;;;5.10;4.60;;;;;;;12.49;60.73;100032.17;110292;1256;21972;-84
2022/04/22 09:48:22;;;;;;;8.40;4.40;;;;;;;12.54;60.69;100032.55;110339;1256;22028;-84
2022/04/22 09:50:57;;;;;;;5.10;3.80;;;;;;;12.51;60.15;100030.47;110264;1256;22017;-83
2022/04/22 09:53:37;;;;;;;5.40;3.60;;;;;;;12.40;59.83;100037.30;110467;1256;23644;-83
2022/04/22 09:56:19;;;;;;;4.80;4.20;;;;;;;12.26;59.75;100038.68;110271;1256;21998;-84
2022/04/22 09:58:49;;;;;;;6.90;4.00;;;;;;;12.10;60.03;100036.91;110325;1256;21967;-83
2022/04/22 10:01:23;;;;;;;5.60;3.60;;;;;;;11.93;60.01;100039.29;109904;1256;23065;-83
2022/04/22 10:04:21;;;;;;;4.40;3.20;;;;;;;11.72;60.38;100034.26;110646;1256;22994;-83
2022/04/22 10:07:03;;;;;;;5.30;4.20;;;;;;;11.61;61.00;100032.69;109929;1260;22106;-83
2022/04/22 10:09:36;;;;;;;6.70;3.50;;;;;;;11.60;61.29;100032.54;109768;1261;21989;-83
2022/04/22 10:12:11;;;;;;;4.60;3.80;;;;;;;11.59;61.39;100031.31;109638;1260;23675;-83
2022/04/22 10:14:53;;;;;;;8.60;3.00;;;;;;;11.63;61.38;100035.48;109417;1264;23056;-83
2022/04/22 10:17:49;;;;;;;3.80;2.50;;;;;;;11.56;61.08;100041.05;109445;1263;22050;-84
2022/04/22 10:20:26;;;;;;;4.10;3.10;;;;;;;11.47;61.08;100036.71;109397;1265;21980;-83
2022/04/22 10:22:59;;;;;;;7.10;3.50;;;;;;;11.43;61.22;100035.92;109457;1263;22000;-84
2022/04/22 10:25:42;;;;;;;4.20;3.20;;;;;;;11.38;61.28;100042.15;109675;1260;23001;-83
2022/04/22 10:28:19;;;;;;;7.40;3.10;;;;;;;11.28;61.26;100041.48;109932;1260;23610;-84
2022/04/22 10:31:00;;;;;;;5.50;3.10;;;;;;;11.24;61.50;100047.23;110099;1256;23309;-83
2022/04/22 10:34:11;;;;;;;3.20;2.40;;;;;;;11.21;61.46;100051.54;110517;1257;23058;-84
2022/04/22 10:36:44;;;;;;;3.30;2.30;;;;;;;11.13;61.37;100047.57;110537;1256;23775;-84
2022/04/22 10:39:34;;;;;;;3.80;3.20;;;;;;;11.08;61.42;100051.06;110698;1249;23051;-84
2022/04/22 10:42:17;;;;;;;4.60;2.70;;;;;;;11.08;61.75;100056.21;110953;1249;21988;-83
2022/04/22 10:47:51;;;;;;;;;;;;;;;;;;;;;
2022/04/22 10:50:39;;;;;;;6.00;3.20;;;;;;;10.96;61.09;100059.91;111138;1249;21956;-83
2022/04/22 10:53:25;;;;;;;4.40;3.30;;;;;;;10.96;61.29;100064.60;110922;1249;22762;-82
2022/04/22 10:56:33;;;;;;;4.50;3.70;;;;;;;10.97;60.92;100066.12;111012;1250;21969;-83
2022/04/22 10:59:20;;;;;;;6.00;3.50;;;;;;;10.92;60.84;100075.62;111062;1249;21936;-82
2022/04/22 11:01:57;;;;;;;4.10;3.50;;;;;;;10.88;60.70;100069.44;111228;1249;21961;-83
2022/04/22 11:04:36;;;;;;;11.10;3.60;;;;;;;10.87;60.69;100062.92;110940;1249;23771;-83
2022/04/22 11:07:15;;;;;;;3.50;3.20;;;;;;;10.85;60.57;100061.52;110933;1249;22978;-83
2022/04/22 11:09:46;;;;;;;4.40;3.40;;;;;;;10.85;60.56;100059.02;110541;1255;22815;-84
2022/04/22 11:13:01;;;;;;;5.80;3.70;;;;;;;10.87;60.49;100061.14;109640;1260;21966;-82
2022/04/22 11:15:47;;;;;;;3.50;2.70;;;;;;;10.89;60.51;100059.84;109192;1270;22071;-83
2022/04/22 11:18:21;;;;;;;3.50;3.10;;;;;;;10.91;60.28;100062.73;108955;1270;22677;-82
2022/04/22 11:21:10;;;;;;;4.60;3.00;;;;;;;10.92;60.12;100062.24;109067;1269;23809;-83
2022/04/22 11:23:44;;;;;;;4.60;3.50;;;;;;;10.95;60.10;100062.59;108806;1273;21993;-82
2022/04/22 11:26:17;;;;;;;4.40;3.50;;;;;;;11.00;59.91;100062.73;109096;1270;23090;-83
2022/04/22 11:28:58;;;;;;;;;;;;;;;11.05;59.94;100060.39;109103;1267;22272;-83
2022/04/22 11:31:37;;;;;;;4.40;3.90;;;;;;;11.05;59.78;100058.31;109940;1262;23620;-83
2022/04/22 11:34:16;;;;;;;7.00;6.30;;;;;;;11.08;59.60;100061.46;110219;1256;23052;-84
2022/04/22 11:36:49;;;;;;;8.20;4.70;;;;;;;11.15;59.35;100056.96;110508;1256;21968;-83
2022/04/22 11:39:25;;;;;;;4.60;3.70;;;;;;;11.22;59.34;100056.13;110512;1256;22266;-81
2022/04/22 11:41:58;;;;;;;7.00;5.00;;;;;;;11.36;59.32;100057.15;110612;1256;21978;-83
2022/04/22 11:44:36;;;;;;;8.50;6.90;;;;;;;11.48;58.48;100062.05;109846;1262;21980;-83
2022/04/22 11:47:06;;;;;;;9.20;6.80;;;;;;;11.51;57.87;100055.19;109883;1263;22434;-83
2022/04/22 11:49:38;;;;;;;5.50;5.00;;;;;;;11.56;57.68;100054.31;108948;1267;344804;-83
2022/04/22 11:52:11;;;;;;;4.50;4.10;;;;;;;11.67;57.81;100049.29;109198;1262;22977;-82
2022/04/22 11:54:46;;;;;;;3.80;3.50;;;;;;;11.82;57.55;100049.23;109582;1261;22841;-83
2022/04/22 11:57:39;;;;;;;5.90;3.20;;;;;;;11.92;57.10;100054.77;109672;1261;23607;-82
2022/04/22 12:05:59;;;;;;;4.30;3.80;;;;;;;11.76;55.88;100055.61;109386;1267;24419;-83
2022/04/22 12:08:30;;;;;;;;;;;;;;;11.72;56.03;100055.91;109461;1261;22746;-83
2022/04/22 12:11:00;;;;;;;7.00;4.30;;;;;;;11.64;56.38;100051.53;110302;1260;22433;-83
2022/04/22 12:13:32;;;;;;;5.30;4.80;;;;;;;11.69;56.66;100049.77;109995;1259;23684;-83
2022/04/22 12:16:03;;;;;;;8.40;4.90;;;;;;;11.74;56.65;100053.64;109899;1261;23170;-84
2022/04/22 12:18:54;;;;;;;7.00;6.30;;;;;;;11.76;56.66;100053.95;110134;1260;21996;-83
2022/04/22 12:21:34;;;;;;;9.60;6.70;;;;;;;11.74;56.45;100045.27;109975;1260;21977;-83
2022/04/22 12:24:06;;;;;;;9.40;7.70;;;;;;;11.67;56.53;100044.13;109910;1256;21973;-83
2022/04/22 12:26:45;;;;;;;7.90;7.10;;;;;;;11.67;56.73;100039.16;110643;1255;23579;-83
2022/04/22 12:29:22;;;;;;;6.10;4.70;;;;;;;11.68;56.83;100038.00;110542;1254;23825;-84
2022/04/22 12:31:56;;;;;;;7.60;5.60;;;;;;;11.67;56.69;100032.92;110356;1256;21969;-84
2022/04/22 12:34:39;;;;;;;6.00;5.50;;;;;;;11.69;56.96;100028.93;110659;1252;23590;-82
2022/04/22 12:37:17;;;;;;;6.90;6.20;;;;;;;11.71;56.81;100030.45;111046;1249;22788;-83
2022/04/22 12:40:09;;;;;;;8.70;7.90;;;;;;;11.72;56.91;100034.52;110885;1250;21995;-83
2022/04/22 12:42:44;;;;;;;10.10;7.20;;;;;;;11.72;56.96;100033.09;110519;1256;21980;-84
2022/04/22 12:54:11;;;;;;;7.40;6.80;;;;;;;12.14;56.34;100019.92;110492;1256;22446;-82
2022/04/22 12:56:58;;;;;;;7.40;6.50;;;;;;;12.28;55.90;100019.18;110423;1256;23247;-80
2022/04/22 12:59:54;;;;;;;7.60;6.90;;;;;;;12.35;54.76;100022.80;110221;1256;24301;-83
2022/04/22 13:02:32;;;;;;;7.80;7.00;;;;;;;12.30;53.86;100016.80;110663;1250;21996;-83